Time;durP1;ratioP1;P1;durP2;ratioP2;P2;SDS_P1;SDS_P2;PMS_P1;PMS_P2;Temp;Humidity;BMP_temperature;BMP_pressure;BME280_temperature;BME280_humidity;BME280_pressure;Samples;Min_cycle;Max_cycle;Signal;HPM_P1;HPM_P2
2023/11/22 00:02:09;;;;;;;8.80;2.80;;;6.60;99.90;;;;;;5046158;28;20441;-69
2023/11/22 00:04:37;;;;;;;9.43;3.40;;;6.40;99.90;;;;;;5045322;28;20846;-70
2023/11/22 00:07:05;;;;;;;9.60;4.93;;;6.30;99.90;;;;;;5045354;28;20474;-70
2023/11/22 00:09:33;;;;;;;9.77;3.70;;;6.20;99.90;;;;;;5045151;28;20530;-70
2023/11/22 00:12:00;;;;;;;9.80;3.93;;;6.00;99.90;;;;;;5045317;28;20439;-71
2023/11/22 00:14:30;;;;;;;10.83;4.50;;;5.90;99.90;;;;;;5044896;28;20437;-70
2023/11/22 00:16:58;;;;;;;10.00;3.87;;;5.90;99.90;;;;;;5041197;28;20571;-68
2023/11/22 00:19:26;;;;;;;10.23;3.80;;;5.80;99.90;;;;;;5038674;28;20591;-69
2023/11/22 00:21:54;;;;;;;9.63;3.87;;;5.80;99.90;;;;;;5045122;28;21122;-69
2023/11/22 00:24:22;;;;;;;11.63;4.10;;;5.70;99.90;;;;;;5044985;28;20468;-69
2023/11/22 00:26:50;;;;;;;11.53;4.97;;;5.70;99.90;;;;;;5039549;28;20874;-70
2023/11/22 00:29:18;;;;;;;11.10;5.17;;;5.70;99.90;;;;;;5039633;28;20901;-68
2023/11/22 00:31:47;;;;;;;10.87;4.20;;;5.60;99.90;;;;;;5044013;28;20536;-69
2023/11/22 00:34:15;;;;;;;12.50;5.10;;;5.60;99.90;;;;;;5045526;28;20461;-70
2023/11/22 00:36:48;;;;;;;11.93;4.37;;;5.50;99.90;;;;;;5046746;28;20486;-69
2023/11/22 00:39:16;;;;;;;12.10;5.10;;;5.50;99.90;;;;;;5047271;28;20578;-67
2023/11/22 00:41:44;;;;;;;14.50;5.40;;;5.50;99.90;;;;;;5046968;28;20454;-70
2023/11/22 00:44:12;;;;;;;13.17;5.50;;;5.50;99.90;;;;;;5047309;28;20483;-69
2023/11/22 00:46:42;;;;;;;12.33;4.60;;;5.50;99.90;;;;;;5047701;28;20535;-69
2023/11/22 00:49:11;;;;;;;11.30;4.50;;;5.50;99.90;;;;;;5047498;28;20566;-69
2023/11/22 00:51:39;;;;;;;13.40;5.47;;;5.50;99.90;;;;;;5047785;28;20543;-69
2023/11/22 00:54:07;;;;;;;11.60;4.60;;;5.50;99.90;;;;;;5056386;28;20933;-67
2023/11/22 00:56:35;;;;;;;14.10;5.30;;;5.40;99.90;;;;;;5051301;28;20452;-69
2023/11/22 00:59:04;;;;;;;13.40;6.40;;;5.40;99.90;;;;;;5050887;28;20487;-70
2023/11/22 01:01:32;;;;;;;15.63;6.50;;;5.40;99.90;;;;;;5051414;28;20459;-69
2023/11/22 01:04:00;;;;;;;12.07;5.10;;;5.30;99.90;;;;;;5051038;28;20530;-68
2023/11/22 01:06:31;;;;;;;12.50;4.80;;;5.20;99.90;;;;;;5050948;28;20448;-69
2023/11/22 01:08:59;;;;;;;12.10;4.93;;;5.20;99.90;;;;;;5050756;28;20532;-69
2023/11/22 01:11:27;;;;;;;11.70;4.87;;;5.10;99.90;;;;;;5051120;28;20453;-68
2023/11/22 01:13:56;;;;;;;12.47;4.73;;;5.00;99.90;;;;;;5050679;28;20457;-69
2023/11/22 01:16:24;;;;;;;10.50;4.83;;;5.00;99.90;;;;;;5050813;28;20928;-69
2023/11/22 01:18:53;;;;;;;12.17;4.30;;;5.00;99.90;;;;;;5050452;28;21005;-70
2023/11/22 01:21:21;;;;;;;9.90;4.10;;;4.90;99.90;;;;;;5050718;28;20444;-69
2023/11/22 01:23:50;;;;;;;10.40;4.87;;;4.90;99.90;;;;;;5050380;28;20448;-69
2023/11/22 01:26:18;;;;;;;10.00;4.20;;;4.90;99.90;;;;;;5042583;28;20444;-70
2023/11/22 01:28:46;;;;;;;12.40;4.70;;;4.90;99.90;;;;;;5050338;28;20493;-69
2023/11/22 01:31:14;;;;;;;10.80;5.00;;;4.90;99.90;;;;;;5050516;28;20522;-69
2023/11/22 01:33:43;;;;;;;10.63;4.40;;;4.90;99.90;;;;;;5056515;28;20440;-69
2023/11/22 01:36:10;;;;;;;13.07;5.00;;;4.90;99.90;;;;;;5051133;28;20875;-69
2023/11/22 01:38:39;;;;;;;10.13;4.90;;;4.80;99.90;;;;;;5049833;28;20555;-70
2023/11/22 01:41:09;;;;;;;10.30;4.07;;;4.80;99.90;;;;;;5050233;28;20447;-69
2023/11/22 01:43:39;;;;;;;9.43;3.10;;;4.80;99.90;;;;;;5050440;28;20505;-69
2023/11/22 01:46:08;;;;;;;9.70;3.00;;;4.80;99.90;;;;;;5049788;28;20454;-69
2023/11/22 01:48:37;;;;;;;10.70;3.93;;;4.70;99.90;;;;;;5049935;28;20470;-69
2023/11/22 01:51:07;;;;;;;11.13;4.40;;;4.70;99.90;;;;;;5050347;28;20451;-69
2023/11/22 01:53:35;;;;;;;9.40;3.60;;;4.70;99.90;;;;;;5049890;28;20452;-69
2023/11/22 01:56:04;;;;;;;9.00;3.60;;;4.60;99.90;;;;;;5049786;28;20451;-70
2023/11/22 01:58:33;;;;;;;9.60;3.73;;;4.60;99.90;;;;;;5049627;28;20460;-69
2023/11/22 02:01:02;;;;;;;10.87;4.37;;;4.60;99.90;;;;;;5049821;28;20448;-70
2023/11/22 02:03:31;;;;;;;9.50;2.97;;;4.60;99.90;;;;;;5049900;28;20455;-67
2023/11/22 02:06:00;;;;;;;11.80;3.93;;;4.60;99.90;;;;;;5049084;28;21087;-70
2023/11/22 02:08:28;;;;;;;9.47;3.20;;;4.60;99.90;;;;;;5049444;28;20530;-69
2023/11/22 02:10:59;;;;;;;9.43;3.03;;;4.60;99.90;;;;;;5049706;28;20444;-69
2023/11/22 02:13:30;;;;;;;11.20;4.07;;;4.60;99.90;;;;;;5049657;28;20565;-68
2023/11/22 02:16:01;;;;;;;9.70;3.53;;;4.60;99.90;;;;;;5049446;28;21093;-70
2023/11/22 02:18:29;;;;;;;10.80;4.17;;;4.60;99.90;;;;;;5049584;28;20440;-69
2023/11/22 02:20:57;;;;;;;10.40;3.80;;;4.60;99.90;;;;;;5049587;28;20491;-70
2023/11/22 02:23:28;;;;;;;9.37;3.53;;;4.60;99.90;;;;;;5049544;28;20497;-70
2023/11/22 02:25:56;;;;;;;9.93;3.77;;;4.60;99.90;;;;;;5048943;28;20993;-69
2023/11/22 02:28:24;;;;;;;9.17;3.00;;;4.60;99.90;;;;;;5049188;28;20537;-69
2023/11/22 02:30:52;;;;;;;8.40;3.23;;;4.50;99.90;;;;;;5049606;28;20539;-70
2023/11/22 02:33:20;;;;;;;7.80;2.70;;;4.50;99.90;;;;;;5041184;28;20459;-70
2023/11/22 02:35:49;;;;;;;10.33;3.10;;;4.60;99.90;;;;;;5048882;28;20451;-69
2023/11/22 02:38:18;;;;;;;10.07;3.40;;;4.50;99.90;;;;;;5048806;28;20452;-69
2023/11/22 02:40:49;;;;;;;9.60;3.47;;;4.50;99.90;;;;;;5048954;28;20475;-69
2023/11/22 02:43:17;;;;;;;9.57;3.53;;;4.50;99.90;;;;;;5051253;28;20492;-69
2023/11/22 02:45:45;;;;;;;9.70;3.40;;;4.40;99.90;;;;;;5048991;28;20455;-69
2023/11/22 02:48:13;;;;;;;9.67;3.17;;;4.30;99.90;;;;;;5049017;28;20543;-68
2023/11/22 02:50:43;;;;;;;8.77;2.90;;;4.30;99.90;;;;;;5049223;28;20510;-70
2023/11/22 02:53:12;;;;;;;10.60;3.03;;;4.30;99.90;;;;;;5048575;28;20490;-69
2023/11/22 02:55:40;;;;;;;8.70;3.17;;;4.30;99.90;;;;;;5048736;28;20536;-69
2023/11/22 02:58:12;;;;;;;10.43;3.97;;;4.20;99.90;;;;;;5048780;28;20459;-69
2023/11/22 03:00:41;;;;;;;12.60;4.87;;;4.20;99.90;;;;;;5048636;28;20540;-70
2023/11/22 03:03:10;;;;;;;9.50;3.17;;;4.20;99.90;;;;;;5048090;28;20452;-70
2023/11/22 03:05:38;;;;;;;9.73;3.30;;;4.20;99.90;;;;;;5048548;28;20454;-70
2023/11/22 03:08:07;;;;;;;9.20;2.70;;;4.20;99.90;;;;;;5048482;28;20448;-70
2023/11/22 03:10:36;;;;;;;9.00;2.90;;;4.10;99.90;;;;;;5048402;28;20484;-69
2023/11/22 03:13:05;;;;;;;10.80;3.80;;;4.00;99.90;;;;;;5048390;28;21176;-68
2023/11/22 03:15:34;;;;;;;9.90;3.40;;;4.00;99.90;;;;;;5047599;28;20995;-69
2023/11/22 03:18:03;;;;;;;10.30;2.77;;;4.00;99.90;;;;;;5048251;28;20460;-69
2023/11/22 03:20:32;;;;;;;9.20;2.87;;;4.00;99.90;;;;;;5048055;28;20512;-68
2023/11/22 03:23:00;;;;;;;10.00;3.67;;;4.00;99.90;;;;;;5048236;28;20448;-68
2023/11/22 03:25:28;;;;;;;9.87;3.10;;;4.00;99.90;;;;;;5048203;28;20456;-69
2023/11/22 03:27:56;;;;;;;9.67;3.47;;;4.00;99.90;;;;;;5048278;28;20451;-69
2023/11/22 03:30:24;;;;;;;9.40;3.53;;;4.00;99.90;;;;;;5048411;28;20464;-68
2023/11/22 03:32:54;;;;;;;9.40;3.67;;;4.00;99.90;;;;;;5048494;28;20450;-69
2023/11/22 03:35:22;;;;;;;10.00;3.83;;;4.10;99.90;;;;;;5048189;28;20455;-68
2023/11/22 03:37:50;;;;;;;10.13;3.50;;;4.10;99.90;;;;;;5048328;28;20456;-69
2023/11/22 03:40:18;;;;;;;9.03;3.80;;;4.10;99.90;;;;;;5048141;28;21151;-69
2023/11/22 03:42:46;;;;;;;11.47;4.10;;;4.10;99.90;;;;;;5048311;28;20444;-68
2023/11/22 03:45:14;;;;;;;9.30;3.57;;;4.10;99.90;;;;;;5047815;28;20505;-68
2023/11/22 03:47:42;;;;;;;10.70;4.00;;;4.10;99.90;;;;;;5048099;28;20448;-68
2023/11/22 03:50:11;;;;;;;9.50;3.60;;;4.10;99.90;;;;;;5047904;28;20495;-68
2023/11/22 03:52:39;;;;;;;9.93;4.03;;;4.10;99.90;;;;;;5047752;28;20459;-69
2023/11/22 03:55:08;;;;;;;13.07;4.90;;;4.10;99.90;;;;;;5047756;28;20448;-69
2023/11/22 03:57:36;;;;;;;12.37;4.03;;;4.10;99.90;;;;;;5048044;28;20454;-67
2023/11/22 04:00:06;;;;;;;9.90;3.87;;;4.10;99.90;;;;;;5047970;28;20635;-68
2023/11/22 04:02:34;;;;;;;10.87;4.17;;;4.10;99.90;;;;;;5048286;28;20444;-68
2023/11/22 04:05:02;;;;;;;9.60;4.00;;;4.10;99.90;;;;;;5047926;28;20451;-68
2023/11/22 04:07:32;;;;;;;12.20;5.27;;;4.10;99.90;;;;;;5047940;28;20546;-68
2023/11/22 04:10:00;;;;;;;10.33;4.57;;;4.00;99.90;;;;;;5047986;28;20475;-69
2023/11/22 04:12:28;;;;;;;11.27;4.60;;;4.00;99.90;;;;;;5047787;28;20981;-68
2023/11/22 04:14:56;;;;;;;9.37;3.70;;;4.00;99.90;;;;;;5047911;28;20509;-69
2023/11/22 04:17:24;;;;;;;10.30;4.30;;;4.10;99.90;;;;;;5047846;28;20539;-69
2023/11/22 04:19:52;;;;;;;11.37;5.30;;;4.00;99.90;;;;;;5047924;28;20463;-68
2023/11/22 04:22:20;;;;;;;11.20;3.80;;;4.00;99.90;;;;;;5047692;28;20455;-69
2023/11/22 04:24:50;;;;;;;9.60;3.30;;;4.10;99.90;;;;;;5053666;28;20812;-68
2023/11/22 04:27:18;;;;;;;9.80;3.63;;;4.10;99.90;;;;;;5048774;28;20452;-70
2023/11/22 04:29:45;;;;;;;11.70;3.67;;;4.00;99.90;;;;;;5051982;28;20471;-69
2023/11/22 04:32:13;;;;;;;11.57;4.67;;;4.00;99.90;;;;;;5051718;28;20516;-69
2023/11/22 04:34:41;;;;;;;11.00;4.00;;;4.00;99.90;;;;;;5051433;28;20450;-69
2023/11/22 04:37:09;;;;;;;10.00;4.23;;;4.00;99.90;;;;;;5051663;28;20906;-68
2023/11/22 04:39:37;;;;;;;10.53;4.30;;;4.00;99.90;;;;;;5051101;28;20463;-69
2023/11/22 04:42:07;;;;;;;9.87;4.07;;;4.00;99.90;;;;;;5051421;28;20576;-69
2023/11/22 04:44:34;;;;;;;10.87;4.70;;;4.00;99.90;;;;;;5051237;28;20448;-68
2023/11/22 04:47:03;;;;;;;10.13;4.37;;;4.00;99.90;;;;;;5051131;28;20875;-69
2023/11/22 04:49:32;;;;;;;9.20;3.50;;;4.00;99.90;;;;;;5050943;28;20491;-68
2023/11/22 04:52:01;;;;;;;10.00;3.80;;;4.00;99.90;;;;;;5051170;28;20466;-68
2023/11/22 04:54:29;;;;;;;11.93;4.03;;;4.00;99.90;;;;;;5051360;28;20828;-67
2023/11/22 04:56:57;;;;;;;10.80;3.70;;;4.00;99.90;;;;;;5051084;28;20456;-67
2023/11/22 04:59:26;;;;;;;10.90;4.33;;;4.00;99.90;;;;;;5050958;28;20478;-66
2023/11/22 05:01:54;;;;;;;10.67;3.90;;;4.00;99.90;;;;;;5051177;28;20488;-66
2023/11/22 05:04:22;;;;;;;9.77;3.50;;;4.00;99.90;;;;;;5051018;28;20464;-68
2023/11/22 05:06:50;;;;;;;11.67;4.00;;;3.90;99.90;;;;;;5051355;28;20509;-66
2023/11/22 05:09:18;;;;;;;9.33;3.37;;;3.90;99.90;;;;;;5050976;28;20536;-65
2023/11/22 05:11:47;;;;;;;11.10;3.77;;;3.90;99.90;;;;;;5051220;28;20986;-67
2023/11/22 05:14:15;;;;;;;9.37;3.70;;;4.00;99.90;;;;;;5050733;28;20455;-67
2023/11/22 05:16:44;;;;;;;9.30;3.70;;;3.90;99.90;;;;;;5050860;28;20452;-67
2023/11/22 05:19:12;;;;;;;8.80;3.40;;;3.90;99.90;;;;;;5050500;28;21304;-69
2023/11/22 05:21:40;;;;;;;9.63;3.57;;;3.90;99.90;;;;;;5050535;28;21078;-69
2023/11/22 05:24:09;;;;;;;9.97;3.40;;;3.90;99.90;;;;;;5050668;28;20502;-68
2023/11/22 05:26:37;;;;;;;9.33;3.53;;;3.90;99.90;;;;;;5050506;28;20443;-67
2023/11/22 05:29:05;;;;;;;9.10;4.20;;;3.90;99.90;;;;;;5050342;28;20499;-68
2023/11/22 05:31:33;;;;;;;10.03;3.77;;;3.80;99.90;;;;;;5050553;28;20443;-68
2023/11/22 05:34:03;;;;;;;8.90;3.10;;;3.80;99.90;;;;;;5049991;28;20538;-69
2023/11/22 05:36:31;;;;;;;9.13;3.33;;;3.80;99.90;;;;;;5050649;28;20444;-66
2023/11/22 05:38:59;;;;;;;8.90;3.23;;;3.80;99.90;;;;;;5052528;28;20463;-67
2023/11/22 05:41:27;;;;;;;9.37;3.20;;;3.80;99.90;;;;;;5042367;28;20487;-69
2023/11/22 05:43:55;;;;;;;9.70;3.80;;;3.80;99.90;;;;;;5050003;28;20455;-69
2023/11/22 05:46:24;;;;;;;9.27;3.23;;;3.80;99.90;;;;;;5049760;28;20546;-68
2023/11/22 05:48:53;;;;;;;8.87;2.90;;;3.70;99.90;;;;;;5046952;28;20467;-70
2023/11/22 05:51:22;;;;;;;9.47;3.70;;;3.70;99.90;;;;;;5049596;28;20914;-69
2023/11/22 05:53:50;;;;;;;10.77;4.60;;;3.70;99.90;;;;;;5049812;28;20491;-69
2023/11/22 05:56:18;;;;;;;9.40;3.20;;;3.80;99.90;;;;;;5049955;28;20537;-70
2023/11/22 05:58:46;;;;;;;10.10;3.70;;;3.80;99.90;;;;;;5049505;28;20950;-68
2023/11/22 06:01:15;;;;;;;11.53;3.50;;;3.80;99.90;;;;;;5049862;28;20515;-70
2023/11/22 06:03:44;;;;;;;11.87;4.07;;;3.70;99.90;;;;;;5050274;28;20444;-69
2023/11/22 06:06:14;;;;;;;9.40;3.43;;;3.80;99.90;;;;;;5046438;28;20444;-71
2023/11/22 06:08:43;;;;;;;9.30;3.40;;;3.80;99.90;;;;;;5049514;28;20539;-68
2023/11/22 06:11:13;;;;;;;8.50;3.00;;;3.70;99.90;;;;;;5048564;28;20952;-69
2023/11/22 06:13:42;;;;;;;9.07;3.10;;;3.80;99.90;;;;;;5050008;28;20486;-70
2023/11/22 06:16:10;;;;;;;10.47;4.20;;;3.70;99.90;;;;;;5049497;28;20448;-70
2023/11/22 06:18:40;;;;;;;8.50;3.70;;;3.70;99.90;;;;;;5049249;28;20464;-71
2023/11/22 06:21:08;;;;;;;12.10;3.50;;;3.70;99.90;;;;;;5049187;28;20506;-70
2023/11/22 06:23:36;;;;;;;9.20;3.10;;;3.70;99.90;;;;;;5048944;28;20477;-70
2023/11/22 06:26:07;;;;;;;8.97;2.90;;;3.70;99.90;;;;;;5049375;28;20569;-70
2023/11/22 06:28:35;;;;;;;14.90;3.30;;;3.60;99.90;;;;;;5048404;28;21443;-70
2023/11/22 06:31:03;;;;;;;10.10;3.47;;;3.60;99.90;;;;;;5047782;28;20540;-71
2023/11/22 06:33:31;;;;;;;12.50;3.23;;;3.70;99.90;;;;;;5049183;28;21072;-70
2023/11/22 06:36:00;;;;;;;8.53;2.93;;;3.70;99.90;;;;;;5048974;28;20456;-70
2023/11/22 06:38:28;;;;;;;9.43;3.03;;;3.70;99.90;;;;;;5049461;28;20447;-71
2023/11/22 06:40:56;;;;;;;9.90;3.20;;;3.60;99.90;;;;;;5050600;28;21156;-69
2023/11/22 06:43:25;;;;;;;11.13;4.30;;;3.60;99.90;;;;;;5050575;28;21077;-69
2023/11/22 06:45:53;;;;;;;10.03;3.20;;;3.60;99.90;;;;;;5043788;28;20969;-71
2023/11/22 06:48:21;;;;;;;8.07;3.10;;;3.60;99.90;;;;;;5045388;28;20520;-69
2023/11/22 06:50:49;;;;;;;8.63;2.87;;;3.50;99.90;;;;;;5047873;28;20448;-70
2023/11/22 06:53:19;;;;;;;9.00;2.93;;;3.50;99.90;;;;;;5048926;28;20513;-68
2023/11/22 06:55:47;;;;;;;10.00;2.73;;;3.50;99.90;;;;;;5048720;28;20447;-69
2023/11/22 06:58:17;;;;;;;8.68;2.33;;;3.50;99.90;;;;;;5045348;28;21031;-67
2023/11/22 07:00:47;;;;;;;11.52;3.17;;;3.40;99.90;;;;;;5049373;28;20634;-69
2023/11/22 07:03:15;;;;;;;9.85;3.10;;;3.40;99.90;;;;;;5049003;28;20217;-67
2023/11/22 07:05:44;;;;;;;10.43;2.80;;;3.40;99.90;;;;;;5049010;28;20244;-69
2023/11/22 07:08:12;;;;;;;8.00;2.20;;;3.40;99.90;;;;;;5049252;28;20825;-70
2023/11/22 07:10:40;;;;;;;9.87;2.90;;;3.30;99.90;;;;;;5049236;28;20440;-70
2023/11/22 07:13:08;;;;;;;8.00;2.63;;;3.30;99.90;;;;;;5042339;28;20818;-70
2023/11/22 07:15:36;;;;;;;12.20;3.70;;;3.30;99.90;;;;;;5046781;28;20440;-69
2023/11/22 07:18:06;;;;;;;8.95;2.60;;;3.30;99.90;;;;;;5048798;28;20271;-71
2023/11/22 07:20:34;;;;;;;12.18;2.80;;;3.20;99.90;;;;;;5048894;28;20221;-69
2023/11/22 07:23:02;;;;;;;9.07;2.80;;;3.20;99.90;;;;;;5048781;28;20314;-69
2023/11/22 07:25:31;;;;;;;9.48;2.90;;;3.20;99.90;;;;;;5041045;28;20214;-70
2023/11/22 07:28:00;;;;;;;9.30;2.77;;;3.20;99.90;;;;;;5046624;28;20197;-69
2023/11/22 07:30:30;;;;;;;8.45;2.60;;;3.10;99.90;;;;;;5045542;28;20826;-69
2023/11/22 07:32:59;;;;;;;8.35;2.75;;;3.20;99.90;;;;;;5047173;28;20193;-70
2023/11/22 07:35:29;;;;;;;8.00;2.55;;;3.10;99.90;;;;;;5048201;28;20231;-71
2023/11/22 07:37:57;;;;;;;9.23;2.00;;;3.10;99.90;;;;;;5047923;28;20211;-70
2023/11/22 07:40:25;;;;;;;9.45;3.40;;;3.10;99.90;;;;;;5044525;28;21096;-69
2023/11/22 07:42:54;;;;;;;8.80;2.80;;;3.10;99.90;;;;;;5048011;28;20713;-70
2023/11/22 07:45:22;;;;;;;9.05;2.80;;;3.10;99.90;;;;;;5047512;28;20201;-70
2023/11/22 07:47:52;;;;;;;10.63;2.65;;;3.10;99.90;;;;;;5048478;28;20201;-70
2023/11/22 07:50:22;;;;;;;9.18;2.97;;;3.00;99.90;;;;;;5048557;28;20227;-70
2023/11/22 07:52:53;;;;;;;9.05;2.58;;;3.10;99.90;;;;;;5047521;28;20577;-70
2023/11/22 07:55:23;;;;;;;8.68;2.60;;;3.10;99.90;;;;;;5047942;28;20556;-70
2023/11/22 07:57:52;;;;;;;10.57;2.83;;;3.00;99.90;;;;;;5048674;28;20257;-70
2023/11/22 08:00:21;;;;;;;8.20;2.42;;;3.00;99.90;;;;;;5048369;28;20652;-70
2023/11/22 08:02:49;;;;;;;8.43;2.60;;;2.90;99.90;;;;;;5049482;28;20232;-70
2023/11/22 08:05:18;;;;;;;9.18;2.65;;;2.90;99.90;;;;;;5052041;28;20212;-70
2023/11/22 08:07:46;;;;;;;9.77;3.03;;;2.90;99.90;;;;;;5052391;28;20238;-70
2023/11/22 08:10:19;;;;;;;8.40;2.65;;;2.80;99.90;;;;;;5052555;28;20227;-70
2023/11/22 08:12:49;;;;;;;9.20;2.50;;;2.80;99.90;;;;;;5052389;28;20205;-70
2023/11/22 08:15:19;;;;;;;8.45;3.00;;;2.90;99.90;;;;;;5052069;28;20219;-69
2023/11/22 08:17:47;;;;;;;8.63;2.88;;;2.80;99.90;;;;;;5052344;28;20205;-70
2023/11/22 08:20:17;;;;;;;8.70;2.92;;;2.80;99.90;;;;;;5052095;28;20231;-69
2023/11/22 08:22:49;;;;;;;8.32;2.72;;;2.80;99.90;;;;;;5052370;28;20252;-71
2023/11/22 08:25:19;;;;;;;10.05;3.30;;;2.70;99.90;;;;;;5051870;28;20212;-70
2023/11/22 08:27:46;;;;;;;10.43;3.30;;;2.70;99.90;;;;;;5052051;28;20206;-69
2023/11/22 08:30:15;;;;;;;12.80;5.93;;;2.70;99.90;;;;;;5052159;28;20290;-71
2023/11/22 08:32:47;;;;;;;8.57;2.90;;;2.70;99.90;;;;;;5052062;28;20203;-69
2023/11/22 08:35:16;;;;;;;9.50;2.90;;;2.80;99.90;;;;;;5051844;28;20227;-70
2023/11/22 08:37:44;;;;;;;10.38;3.25;;;2.80;99.90;;;;;;5051971;28;20205;-68
2023/11/22 08:40:14;;;;;;;8.38;2.50;;;2.80;99.90;;;;;;5052105;28;20322;-69
2023/11/22 08:42:43;;;;;;;11.15;3.10;;;2.80;99.90;;;;;;5051975;28;20271;-70
2023/11/22 08:45:12;;;;;;;9.45;3.45;;;2.70;99.90;;;;;;5051604;28;20691;-69
2023/11/22 08:47:41;;;;;;;8.05;2.78;;;2.70;99.90;;;;;;5052082;28;20619;-69
2023/11/22 08:50:11;;;;;;;15.32;3.88;;;2.70;99.90;;;;;;5051999;28;20227;-70
2023/11/22 08:52:41;;;;;;;9.55;2.90;;;2.80;99.90;;;;;;5052292;28;20614;-69
2023/11/22 08:55:09;;;;;;;10.88;3.40;;;2.80;99.90;;;;;;5052003;28;20209;-70
2023/11/22 08:57:38;;;;;;;11.43;3.75;;;2.80;99.90;;;;;;5051630;28;20211;-70
2023/11/22 09:00:10;;;;;;;9.93;3.58;;;2.80;99.90;;;;;;5051307;28;20244;-69
2023/11/22 09:02:39;;;;;;;9.80;3.83;;;2.80;99.90;;;;;;5051026;28;20206;-70
2023/11/22 09:05:09;;;;;;;9.27;3.40;;;2.80;99.90;;;;;;5050011;28;20555;-68
2023/11/22 09:07:37;;;;;;;9.45;3.10;;;2.90;99.90;;;;;;5050184;28;20323;-69
2023/11/22 09:10:09;;;;;;;11.00;3.17;;;2.90;99.90;;;;;;5050118;28;20231;-70
2023/11/22 09:12:39;;;;;;;10.75;4.00;;;2.90;99.90;;;;;;5050047;28;20300;-70
2023/11/22 09:15:10;;;;;;;10.32;3.83;;;2.90;99.90;;;;;;5048397;28;20697;-70
2023/11/22 09:17:43;;;;;;;10.55;3.72;;;2.90;99.90;;;;;;5049783;28;20257;-69
2023/11/22 09:20:12;;;;;;;10.07;2.95;;;2.90;99.90;;;;;;5049444;28;20282;-68
2023/11/22 09:22:47;;;;;;;10.47;3.97;;;2.80;99.90;;;;;;5049369;28;20213;-69
2023/11/22 09:25:18;;;;;;;12.55;5.40;;;2.90;99.90;;;;;;5049298;28;20530;-68
2023/11/22 09:27:48;;;;;;;10.50;3.57;;;2.90;99.90;;;;;;5049252;28;20209;-69
2023/11/22 09:30:32;;;;;;;10.17;3.50;;;3.00;99.90;;;;;;5049335;28;20567;-69
2023/11/22 09:33:01;;;;;;;15.57;3.33;;;3.00;99.90;;;;;;5050713;28;20878;-68
2023/11/22 09:35:31;;;;;;;10.52;3.78;;;3.10;99.90;;;;;;5050099;28;20223;-68
2023/11/22 09:37:59;;;;;;;9.47;3.50;;;3.10;99.90;;;;;;5050162;28;20209;-69
2023/11/22 09:40:28;;;;;;;10.70;4.17;;;3.20;99.90;;;;;;5050264;28;20476;-69
2023/11/22 09:42:57;;;;;;;8.35;3.20;;;3.20;99.90;;;;;;5050037;28;20514;-68
2023/11/22 09:45:27;;;;;;;15.30;5.07;;;3.30;99.90;;;;;;5049981;28;20641;-68
2023/11/22 09:47:56;;;;;;;12.63;3.97;;;3.40;99.90;;;;;;5049984;28;20541;-69
2023/11/22 09:50:35;;;;;;;10.57;3.97;;;3.40;99.90;;;;;;5049830;28;21097;-69
2023/11/22 09:53:11;;;;;;;10.05;3.10;;;3.30;99.90;;;;;;5049981;28;20719;-68
2023/11/22 09:55:42;;;;;;;9.43;3.40;;;3.20;99.90;;;;;;5049712;28;20203;-69
2023/11/22 09:58:12;;;;;;;8.73;3.67;;;3.10;99.90;;;;;;5049608;28;20443;-70
2023/11/22 10:00:41;;;;;;;10.00;3.63;;;3.10;99.90;;;;;;5050017;28;20493;-69
2023/11/22 10:03:12;;;;;;;11.43;4.50;;;3.10;99.90;;;;;;5049707;28;20675;-69
2023/11/22 10:05:43;;;;;;;11.20;4.40;;;3.10;99.90;;;;;;5049556;28;20205;-69
2023/11/22 10:08:11;;;;;;;12.00;4.00;;;3.10;99.90;;;;;;5049500;28;20299;-70
2023/11/22 10:10:42;;;;;;;11.45;3.60;;;3.20;99.90;;;;;;5049701;28;20229;-69
2023/11/22 10:13:10;;;;;;;9.68;3.95;;;3.20;99.90;;;;;;5049663;28;20215;-69
2023/11/22 10:15:38;;;;;;;13.63;4.40;;;3.30;99.90;;;;;;5049335;28;20213;-69
2023/11/22 10:18:07;;;;;;;9.20;4.00;;;3.40;99.90;;;;;;5049298;28;20454;-69
2023/11/22 10:20:39;;;;;;;12.03;3.97;;;3.40;99.90;;;;;;5049264;28;20984;-69
2023/11/22 10:23:10;;;;;;;11.55;5.03;;;3.30;99.90;;;;;;5049581;28;20491;-70
2023/11/22 10:25:44;;;;;;;11.52;4.15;;;3.20;99.90;;;;;;5048703;28;20217;-69
2023/11/22 10:28:12;;;;;;;13.83;4.40;;;3.30;99.90;;;;;;5049247;28;20211;-68
2023/11/22 10:30:41;;;;;;;10.90;4.23;;;3.30;99.90;;;;;;5049232;28;20514;-67
2023/11/22 10:33:14;;;;;;;10.97;4.00;;;3.30;99.90;;;;;;5049429;28;20594;-69
2023/11/22 10:35:44;;;;;;;11.67;4.57;;;3.30;99.90;;;;;;5049225;28;20490;-68
2023/11/22 10:38:15;;;;;;;10.43;4.18;;;3.20;99.90;;;;;;5050260;28;20978;-69
2023/11/22 10:40:44;;;;;;;13.32;5.63;;;3.30;99.90;;;;;;5051182;28;20209;-69
2023/11/22 10:43:13;;;;;;;11.93;4.35;;;3.40;99.90;;;;;;5050337;28;20224;-70
2023/11/22 10:45:45;;;;;;;10.57;4.63;;;3.60;99.90;;;;;;5049405;28;20217;-70
2023/11/22 10:48:16;;;;;;;12.87;3.83;;;3.80;99.90;;;;;;5049066;28;20448;-69
2023/11/22 10:50:45;;;;;;;11.00;4.30;;;3.70;99.90;;;;;;5049064;28;20447;-69
2023/11/22 10:53:20;;;;;;;11.40;4.13;;;3.80;99.90;;;;;;5057034;28;20449;-70
2023/11/22 10:55:49;;;;;;;10.57;4.30;;;3.90;99.90;;;;;;5048445;28;20493;-69
2023/11/22 10:58:19;;;;;;;10.60;4.40;;;3.90;99.90;;;;;;5048438;28;20513;-66
2023/11/22 11:00:50;;;;;;;10.80;3.93;;;4.00;99.90;;;;;;5049088;28;20443;-69
2023/11/22 11:03:20;;;;;;;9.97;4.00;;;4.00;99.90;;;;;;5048745;28;20497;-68
2023/11/22 11:05:55;;;;;;;10.63;4.10;;;4.20;99.90;;;;;;5048283;28;20519;-69
2023/11/22 11:08:27;;;;;;;10.87;4.20;;;4.20;99.90;;;;;;5048062;28;20447;-68
2023/11/22 11:10:56;;;;;;;11.37;4.77;;;4.30;99.90;;;;;;5048786;28;20451;-70
2023/11/22 11:13:24;;;;;;;10.23;4.70;;;4.20;99.90;;;;;;5048623;28;20495;-69
2023/11/22 11:15:55;;;;;;;11.87;4.40;;;4.20;99.90;;;;;;5048317;28;20490;-70
2023/11/22 11:18:27;;;;;;;10.77;4.27;;;4.20;99.90;;;;;;5048364;28;20479;-68
2023/11/22 11:20:58;;;;;;;11.40;4.63;;;4.20;99.90;;;;;;5048388;28;20969;-70
2023/11/22 11:23:28;;;;;;;9.60;4.57;;;4.40;99.90;;;;;;5048505;28;20445;-68
2023/11/22 11:25:56;;;;;;;10.67;5.60;;;4.40;99.90;;;;;;5048296;28;20496;-69
2023/11/22 11:28:26;;;;;;;11.20;4.40;;;4.40;99.90;;;;;;5048165;28;20451;-69
2023/11/22 11:30:55;;;;;;;13.70;6.57;;;4.30;99.90;;;;;;5048539;28;20933;-68
2023/11/22 11:33:33;;;;;;;11.13;4.27;;;4.20;99.90;;;;;;5048144;28;20555;-69
2023/11/22 11:36:03;;;;;;;9.73;4.00;;;4.00;99.90;;;;;;5048191;28;20440;-70
2023/11/22 11:38:33;;;;;;;11.50;4.37;;;3.90;99.90;;;;;;5047303;28;20539;-69
2023/11/22 11:41:10;;;;;;;13.80;5.33;;;3.90;99.90;;;;;;5048337;28;20466;-70
2023/11/22 11:43:41;;;;;;;14.30;4.30;;;4.00;99.90;;;;;;5048027;28;20451;-69
2023/11/22 11:46:10;;;;;;;9.90;4.20;;;4.00;99.90;;;;;;5048245;28;20567;-67
2023/11/22 11:48:43;;;;;;;11.73;4.53;;;4.00;99.90;;;;;;5047826;28;20470;-70
2023/11/22 11:51:14;;;;;;;10.00;4.47;;;3.90;99.90;;;;;;5048210;28;20440;-68
2023/11/22 11:53:42;;;;;;;11.00;4.80;;;3.90;99.90;;;;;;5047952;28;20444;-70
2023/11/22 11:56:11;;;;;;;10.60;4.43;;;3.90;99.90;;;;;;5047951;28;20530;-68
2023/11/22 11:58:39;;;;;;;11.43;4.57;;;3.80;99.90;;;;;;5051925;28;20874;-69
2023/11/22 12:01:07;;;;;;;12.50;5.63;;;3.90;99.90;;;;;;5051897;28;20454;-68
2023/11/22 12:03:38;;;;;;;11.20;4.70;;;3.80;99.90;;;;;;5048334;28;20503;-69
2023/11/22 12:06:08;;;;;;;11.17;4.80;;;3.80;99.90;;;;;;5047748;28;20523;-68
2023/11/22 12:08:36;;;;;;;12.97;4.83;;;3.90;99.90;;;;;;5047734;28;20452;-68
2023/11/22 12:11:06;;;;;;;11.80;5.13;;;3.80;99.90;;;;;;5048033;28;21223;-69
2023/11/22 12:13:38;;;;;;;11.47;5.03;;;3.80;99.90;;;;;;5048064;28;20440;-69
2023/11/22 12:16:10;;;;;;;12.50;4.83;;;3.80;99.90;;;;;;5047929;28;20438;-68
2023/11/22 12:18:42;;;;;;;10.98;4.00;;;3.80;99.90;;;;;;5047880;28;20537;-69
2023/11/22 12:21:13;;;;;;;12.50;5.17;;;3.70;99.90;;;;;;5047913;28;20215;-69
2023/11/22 12:23:42;;;;;;;11.30;4.03;;;3.70;99.90;;;;;;5047695;28;20535;-67
2023/11/22 12:26:12;;;;;;;11.67;4.80;;;3.60;99.90;;;;;;5048055;28;20521;-66
2023/11/22 12:28:42;;;;;;;9.80;4.70;;;3.50;99.90;;;;;;5047772;28;20467;-68
2023/11/22 12:31:21;;;;;;;11.17;4.83;;;3.50;99.90;;;;;;5047304;28;20215;-69
2023/11/22 12:33:49;;;;;;;11.53;4.90;;;3.60;99.90;;;;;;5046709;28;20441;-69
2023/11/22 12:36:22;;;;;;;9.35;4.00;;;3.60;99.90;;;;;;5045898;28;20451;-68
2023/11/22 12:38:50;;;;;;;10.77;3.95;;;3.60;99.90;;;;;;5047161;28;20227;-68
2023/11/22 12:41:20;;;;;;;10.70;3.50;;;3.60;99.90;;;;;;5045842;28;20209;-69
2023/11/22 12:44:03;;;;;;;11.50;4.90;;;3.60;99.90;;;;;;5047414;28;20511;-68
2023/11/22 12:46:46;;;;;;;12.00;4.50;;;3.60;99.90;;;;;;5047364;28;20259;-69
2023/11/22 12:49:14;;;;;;;12.97;5.07;;;3.70;99.90;;;;;;5049623;28;20493;-68
2023/11/22 12:51:49;;;;;;;13.70;5.63;;;3.70;99.90;;;;;;5051570;28;20486;-67
2023/11/22 12:54:19;;;;;;;11.40;4.40;;;3.70;99.90;;;;;;5051074;28;20443;-70
2023/11/22 12:56:50;;;;;;;13.80;4.87;;;3.80;99.90;;;;;;5051200;28;21347;-69
2023/11/22 12:59:18;;;;;;;14.00;6.33;;;3.70;99.90;;;;;;5051058;28;20475;-69
2023/11/22 13:01:46;;;;;;;12.03;4.67;;;3.70;99.90;;;;;;5051269;28;20459;-68